createdAt,value
2019-03-30T00:02:07.591Z,101530.61
2019-03-30T00:04:38.243Z,101511.87
2019-03-30T00:07:08.204Z,101509.10
2019-03-30T00:09:38.727Z,101507.04
2019-03-30T00:12:10.507Z,101504.35
2019-03-30T00:14:41.264Z,101506.54
2019-03-30T00:17:11.910Z,101500.33
2019-03-30T00:19:42.665Z,101499.36
2019-03-30T00:22:12.616Z,101500.05
2019-03-30T00:24:43.152Z,101504.84
2019-03-30T00:27:14.007Z,101508.81
2019-03-30T00:29:44.638Z,101512.52
2019-03-30T00:32:14.722Z,101519.36
2019-03-30T00:34:45.241Z,101522.02
2019-03-30T00:37:15.996Z,101535.30
2019-03-30T00:39:47.146Z,101530.36
2019-03-30T00:42:17.799Z,101530.61
2019-03-30T00:44:48.564Z,101525.30
2019-03-30T00:47:19.422Z,101523.48
2019-03-30T00:49:50.371Z,101518.30
2019-03-30T00:52:21.135Z,101521.64
2019-03-30T00:54:51.996Z,101519.78
2019-03-30T00:57:22.726Z,101519.02
2019-03-30T00:59:53.376Z,101513.18
2019-03-30T01:02:24.030Z,101514.66
2019-03-30T01:04:53.895Z,101513.45
2019-03-30T01:07:24.430Z,101511.91
2019-03-30T01:09:55.184Z,101507.13
2019-03-30T01:12:27.145Z,101497.26
2019-03-30T01:14:57.918Z,101493.77
2019-03-30T01:17:28.761Z,101497.56
2019-03-30T01:20:03.015Z,101493.59
2019-03-30T01:22:31.712Z,101497.55
2019-03-30T01:25:02.448Z,101490.37
2019-03-30T01:27:33.221Z,101500.27
2019-03-30T01:30:03.976Z,101499.61
2019-03-30T01:32:35.118Z,101494.64
2019-03-30T01:35:07.495Z,101499.17
2019-03-30T01:37:37.959Z,101500.12
2019-03-30T01:40:08.506Z,101500.61
2019-03-30T01:42:39.362Z,101494.89
2019-03-30T01:45:10.337Z,101493.94
2019-03-30T01:47:41.093Z,101498.49
2019-03-30T01:50:17.734Z,101490.70
2019-03-30T01:52:43.911Z,101486.06
2019-03-30T01:55:14.685Z,101485.02
2019-03-30T01:57:45.443Z,101481.19
2019-03-30T02:00:16.992Z,101481.09
2019-03-30T02:02:47.764Z,101480.50
2019-03-30T02:05:18.621Z,101470.83
2019-03-30T02:07:49.477Z,101472.27
2019-03-30T02:10:37.949Z,101472.95
2019-03-30T02:13:09.171Z,101480.64
2019-03-30T02:15:39.839Z,101476.33
2019-03-30T02:18:10.699Z,101479.95
2019-03-30T02:20:43.802Z,101482.84
2019-03-30T02:23:14.229Z,101490.52
2019-03-30T02:25:45.110Z,101485.41
2019-03-30T02:28:15.843Z,101478.06
2019-03-30T02:30:46.514Z,101482.52
2019-03-30T02:33:17.364Z,101474.13
2019-03-30T02:35:48.121Z,101478.41
2019-03-30T02:38:18.872Z,101477.13
2019-03-30T02:40:49.732Z,101478.83
2019-03-30T02:43:20.467Z,101476.66
2019-03-30T02:45:51.121Z,101476.09
2019-03-30T02:48:21.199Z,101485.05
2019-03-30T02:50:51.572Z,101489.30
2019-03-30T02:53:22.358Z,101487.25
2019-03-30T02:55:53.027Z,101488.38
2019-03-30T02:58:23.864Z,101477.70
2019-03-30T03:00:54.535Z,101481.54
2019-03-30T03:03:25.269Z,101482.28
2019-03-30T03:05:55.940Z,101474.66
2019-03-30T03:08:26.795Z,101471.98
2019-03-30T03:10:57.548Z,101472.91
2019-03-30T03:13:29.318Z,101478.14
2019-03-30T03:15:59.977Z,101472.16
2019-03-30T03:18:29.928Z,101478.78
2019-03-30T03:21:07.903Z,101478.96
2019-03-30T03:23:32.547Z,101481.16
2019-03-30T03:26:03.614Z,101478.73
2019-03-30T03:28:34.154Z,101477.91
2019-03-30T03:31:04.905Z,101464.83
2019-03-30T03:33:36.300Z,101472.03
2019-03-30T03:36:07.132Z,101474.64
2019-03-30T03:38:37.771Z,101474.81
2019-03-30T03:41:07.632Z,101475.69
2019-03-30T03:43:38.164Z,101473.53
2019-03-30T03:46:08.800Z,101473.53
2019-03-30T03:48:38.778Z,101467.33
2019-03-30T03:51:24.815Z,101478.36
2019-03-30T03:53:41.269Z,101470.47
2019-03-30T03:56:11.235Z,101469.31
2019-03-30T03:58:41.650Z,101473.33
2019-03-30T04:01:12.419Z,101470.80
2019-03-30T04:03:42.968Z,101482.84
2019-03-30T04:06:13.829Z,101484.93
2019-03-30T04:08:44.459Z,101483.67
2019-03-30T04:11:15.110Z,101485.36
2019-03-30T04:13:46.803Z,101483.77
2019-03-30T04:16:17.559Z,101493.95
2019-03-30T04:18:48.669Z,101492.56
2019-03-30T04:21:19.455Z,101488.11
2019-03-30T04:23:54.074Z,101493.67
2019-03-30T04:26:22.521Z,101498.80
2019-03-30T04:28:53.372Z,101502.07
2019-03-30T04:31:24.148Z,101500.52
2019-03-30T04:33:54.778Z,101503.27
2019-03-30T04:36:25.614Z,101507.98
2019-03-30T04:38:56.385Z,101516.80
2019-03-30T04:41:27.141Z,101511.39
2019-03-30T04:43:57.794Z,101520.63
2019-03-30T04:46:28.649Z,101515.69
2019-03-30T04:48:59.403Z,101515.44
2019-03-30T04:51:30.138Z,101516.28
2019-03-30T04:54:01.012Z,101518.41
2019-03-30T04:56:31.866Z,101525.07
2019-03-30T04:59:02.632Z,101529.09
2019-03-30T05:01:33.286Z,101527.45
2019-03-30T05:04:04.109Z,101535.09
2019-03-30T05:06:37.011Z,101529.17
2019-03-30T05:09:07.885Z,101530.19
2019-03-30T05:11:38.523Z,101533.50
2019-03-30T05:14:10.416Z,101535.48
2019-03-30T05:16:41.170Z,101537.29
2019-03-30T05:19:11.805Z,101539.09
2019-03-30T05:21:42.558Z,101544.45
2019-03-30T05:24:13.430Z,101539.17
2019-03-30T05:26:44.192Z,101537.05
2019-03-30T05:29:14.825Z,101539.05
2019-03-30T05:31:45.574Z,101538.67
2019-03-30T05:34:16.343Z,101528.41
2019-03-30T05:36:46.981Z,101531.36
2019-03-30T05:39:16.947Z,101528.53
2019-03-30T05:41:47.490Z,101521.30
2019-03-30T05:44:18.132Z,101533.70
2019-03-30T05:46:48.092Z,101531.08
2019-03-30T05:49:18.499Z,101532.33
2019-03-30T05:51:49.269Z,101539.30
2019-03-30T05:54:20.023Z,101532.52
2019-03-30T05:56:50.879Z,101535.00
2019-03-30T05:59:21.634Z,101540.17
2019-03-30T06:01:52.273Z,101537.88
2019-03-30T06:04:22.847Z,101533.34
2019-03-30T06:06:53.687Z,101534.81
2019-03-30T06:09:24.456Z,101527.83
2019-03-30T06:11:55.200Z,101533.88
2019-03-30T06:14:26.752Z,101526.50
2019-03-30T06:16:57.507Z,101533.16
2019-03-30T06:19:28.380Z,101535.02
2019-03-30T06:21:59.233Z,101532.10
2019-03-30T06:24:30.065Z,101529.84
2019-03-30T06:27:00.723Z,101524.88
2019-03-30T06:29:31.479Z,101517.03
2019-03-30T06:32:02.351Z,101512.49
2019-03-30T06:34:33.010Z,101524.72
2019-03-30T06:37:02.965Z,101516.88
2019-03-30T06:39:36.820Z,101516.24
2019-03-30T06:42:05.576Z,101520.19
2019-03-30T06:44:36.223Z,101521.29
2019-03-30T06:47:06.960Z,101520.45
2019-03-30T06:49:37.817Z,101531.07
2019-03-30T06:52:08.587Z,101521.90
2019-03-30T06:54:39.237Z,101522.45
2019-03-30T06:57:10.102Z,101525.19
2019-03-30T06:59:40.848Z,101524.19
2019-03-30T07:02:11.602Z,101521.56
2019-03-30T07:04:43.380Z,101521.58
2019-03-30T07:07:14.032Z,101523.36
2019-03-30T07:09:45.297Z,101516.45
2019-03-30T07:12:15.640Z,101515.89
2019-03-30T07:14:46.684Z,101518.96
2019-03-30T07:17:17.049Z,101517.35
2019-03-30T07:19:46.999Z,101511.97
2019-03-30T07:22:16.943Z,101511.63
2019-03-30T07:24:46.776Z,101513.43
2019-03-30T07:27:16.610Z,101509.03
2019-03-30T07:29:46.434Z,101510.98
2019-03-30T07:32:16.277Z,101511.13
2019-03-30T07:34:46.211Z,101499.21
2019-03-30T07:37:16.046Z,101508.27
2019-03-30T07:39:45.981Z,101496.50
2019-03-30T07:42:15.805Z,101501.59
2019-03-30T07:44:45.536Z,101513.67
2019-03-30T07:47:15.789Z,101504.52
2019-03-30T07:49:45.729Z,101506.95
2019-03-30T07:52:15.548Z,101502.72
2019-03-30T07:54:45.288Z,101509.20
2019-03-30T07:57:17.418Z,101514.39
2019-03-30T07:59:46.377Z,101508.05
2019-03-30T08:02:16.212Z,101504.20
2019-03-30T08:04:46.053Z,101498.49
2019-03-30T08:07:15.887Z,101488.20
2019-03-30T08:09:45.822Z,101493.61
2019-03-30T08:12:16.167Z,101497.06
2019-03-30T08:14:46.137Z,101496.88
2019-03-30T08:17:17.257Z,101493.98
2019-03-30T08:19:50.186Z,101490.35
2019-03-30T08:22:18.160Z,101502.86
2019-03-30T08:24:47.881Z,101503.38
2019-03-30T08:27:17.826Z,101497.78
2019-03-30T08:29:47.651Z,101505.02
2019-03-30T08:32:17.390Z,101504.34
2019-03-30T08:34:47.333Z,101509.71
2019-03-30T08:37:17.153Z,101518.56
2019-03-30T08:39:46.893Z,101518.11
2019-03-30T08:42:16.827Z,101522.20
2019-03-30T08:44:48.552Z,101530.73
2019-03-30T08:47:18.027Z,101530.08
2019-03-30T08:49:47.860Z,101537.27
2019-03-30T08:52:17.693Z,101522.48
2019-03-30T08:54:47.416Z,101537.32
2019-03-30T08:57:17.262Z,101534.28
2019-03-30T08:59:47.091Z,101533.86
2019-03-30T09:02:16.916Z,101529.08
2019-03-30T09:04:46.751Z,101532.47
2019-03-30T09:07:16.585Z,101529.64
2019-03-30T09:09:46.417Z,101531.36
2019-03-30T09:12:16.258Z,101523.82
2019-03-30T09:14:46.084Z,101530.41
2019-03-30T09:17:15.928Z,101527.01
2019-03-30T09:19:45.861Z,101517.83
2019-03-30T09:22:15.694Z,101526.03
2019-03-30T09:24:46.551Z,101526.23
2019-03-30T09:27:16.385Z,101520.47
2019-03-30T09:29:46.424Z,101527.08
2019-03-30T09:32:16.463Z,101518.22
2019-03-30T09:34:46.285Z,101514.85
2019-03-30T09:37:16.128Z,101516.09
2019-03-30T09:39:45.952Z,101515.36
2019-03-30T09:42:15.895Z,101518.64
2019-03-30T09:44:45.721Z,101518.98
2019-03-30T09:47:15.564Z,101503.54
2019-03-30T09:49:45.499Z,101509.46
2019-03-30T09:52:15.842Z,101516.06
2019-03-30T09:54:45.575Z,101516.84
2019-03-30T09:57:15.510Z,101518.81
2019-03-30T09:59:45.035Z,101517.72
2019-03-30T10:02:14.975Z,101521.33
2019-03-30T10:04:44.907Z,101523.86
2019-03-30T10:07:14.749Z,101521.30
2019-03-30T10:09:47.163Z,101523.56
2019-03-30T10:12:15.831Z,101523.73
2019-03-30T10:14:45.664Z,101528.10
2019-03-30T10:17:15.507Z,101530.23
2019-03-30T10:19:53.126Z,101530.47
2019-03-30T10:22:17.731Z,101538.45
2019-03-30T10:24:47.564Z,101545.91
2019-03-30T10:27:17.387Z,101532.29
2019-03-30T10:29:47.119Z,101554.48
2019-03-30T10:32:16.961Z,101551.57
2019-03-30T10:34:46.796Z,101543.75
2019-03-30T10:37:16.517Z,101544.99
2019-03-30T10:39:46.351Z,101546.83
2019-03-30T10:42:16.295Z,101541.39
2019-03-30T10:44:46.128Z,101539.53
2019-03-30T10:47:15.962Z,101541.45
2019-03-30T10:49:45.890Z,101541.66
2019-03-30T10:52:15.834Z,101538.81
2019-03-30T10:54:52.456Z,101542.25
2019-03-30T10:57:16.931Z,101534.68
2019-03-30T10:59:46.765Z,101534.78
2019-03-30T11:02:16.599Z,101527.02
2019-03-30T11:04:46.422Z,101526.73
2019-03-30T11:07:16.156Z,101526.88
2019-03-30T11:09:49.339Z,101531.16
2019-03-30T11:12:18.083Z,101514.70
2019-03-30T11:14:47.599Z,101516.61
2019-03-30T11:17:19.323Z,101524.92
2019-03-30T11:19:49.216Z,101523.11
2019-03-30T11:22:18.838Z,101517.91
2019-03-30T11:24:48.569Z,101520.34
2019-03-30T11:27:18.404Z,101521.23
2019-03-30T11:29:48.243Z,101521.72
2019-03-30T11:32:18.075Z,101516.83
2019-03-30T11:34:47.910Z,101520.56
2019-03-30T11:37:17.742Z,101525.27
2019-03-30T11:39:47.474Z,101527.25
2019-03-30T11:42:17.308Z,101525.09
2019-03-30T11:44:47.133Z,101526.55
2019-03-30T11:47:17.076Z,101528.06
2019-03-30T11:49:47.013Z,101516.52
2019-03-30T11:52:16.836Z,101515.03
2019-03-30T11:54:46.576Z,101519.83
2019-03-30T11:57:16.517Z,101514.91
2019-03-30T11:59:46.345Z,101520.83
2019-03-30T12:02:27.257Z,101511.16
2019-03-30T12:04:47.548Z,101509.77
2019-03-30T12:07:17.381Z,101508.48
2019-03-30T12:09:47.111Z,101514.50
2019-03-30T12:12:17.046Z,101515.06
2019-03-30T12:14:46.880Z,101514.27
2019-03-30T12:17:16.611Z,101508.48
2019-03-30T12:19:46.334Z,101512.36
2019-03-30T12:22:16.175Z,101511.55
2019-03-30T12:24:46.011Z,101504.64
2019-03-30T12:27:15.834Z,101505.13
2019-03-30T12:29:45.676Z,101508.25
2019-03-30T12:32:15.613Z,101496.09
2019-03-30T12:34:45.444Z,101502.50
2019-03-30T12:37:15.278Z,101496.44
2019-03-30T12:39:45.215Z,101491.80
2019-03-30T12:42:15.151Z,101499.45
2019-03-30T12:44:44.985Z,101485.42
2019-03-30T12:47:14.919Z,101491.98
2019-03-30T12:49:45.394Z,101497.34
2019-03-30T12:52:15.608Z,101490.05
2019-03-30T12:54:45.545Z,101495.25
2019-03-30T12:57:15.370Z,101489.71
2019-03-30T12:59:45.211Z,101490.24
2019-03-30T13:02:15.044Z,101485.02
2019-03-30T13:04:44.878Z,101483.25
2019-03-30T13:07:14.706Z,101481.44
2019-03-30T13:09:44.647Z,101478.38
2019-03-30T13:12:14.482Z,101476.95
2019-03-30T13:14:44.305Z,101468.00
2019-03-30T13:17:14.045Z,101479.31
2019-03-30T13:19:43.870Z,101474.61
2019-03-30T13:22:14.836Z,101472.86
2019-03-30T13:24:44.673Z,101472.20
2019-03-30T13:27:14.495Z,101478.16
2019-03-30T13:29:44.439Z,101462.34
2019-03-30T13:32:14.268Z,101469.39
2019-03-30T13:34:44.098Z,101469.45
2019-03-30T13:37:17.406Z,101469.92
2019-03-30T13:39:46.945Z,101470.16
2019-03-30T13:42:16.879Z,101471.34
2019-03-30T13:44:46.817Z,101468.38
2019-03-30T13:47:16.648Z,101462.80
2019-03-30T13:49:46.476Z,101470.42
2019-03-30T13:52:16.418Z,101463.60
2019-03-30T13:54:46.967Z,101467.29
2019-03-30T13:57:16.697Z,101466.11
2019-03-30T13:59:46.522Z,101465.84
2019-03-30T14:02:16.359Z,101471.16
2019-03-30T14:04:46.197Z,101473.84
2019-03-30T14:07:16.236Z,101473.58
2019-03-30T14:09:46.062Z,101473.50
2019-03-30T14:12:16.005Z,101479.02
2019-03-30T14:14:45.831Z,101474.28
2019-03-30T14:17:20.262Z,101467.42
2019-03-30T14:19:49.997Z,101467.32
2019-03-30T14:22:20.035Z,101471.69
2019-03-30T14:24:49.979Z,101465.72
2019-03-30T14:27:20.018Z,101468.09
2019-03-30T14:29:49.850Z,101472.44
2019-03-30T14:32:19.679Z,101474.01
2019-03-30T14:34:49.725Z,101475.89
2019-03-30T14:37:19.658Z,101473.36
2019-03-30T14:39:49.491Z,101472.72
2019-03-30T14:42:19.426Z,101477.34
2019-03-30T14:44:49.363Z,101472.70
2019-03-30T14:47:19.084Z,101472.35
2019-03-30T14:49:49.029Z,101474.28
2019-03-30T14:52:18.853Z,101468.23
2019-03-30T14:54:52.966Z,101473.30
2019-03-30T14:57:19.966Z,101474.13
2019-03-30T14:59:49.786Z,101477.04
2019-03-30T15:02:19.629Z,101476.41
2019-03-30T15:04:49.564Z,101481.42
2019-03-30T15:07:19.503Z,101476.45
2019-03-30T15:09:49.323Z,101474.25
2019-03-30T15:12:19.373Z,101476.34
2019-03-30T15:14:49.306Z,101482.01
2019-03-30T15:17:19.248Z,101484.47
2019-03-30T15:19:49.076Z,101487.98
2019-03-30T15:22:19.012Z,101487.80
2019-03-30T15:24:50.063Z,101494.22
2019-03-30T15:27:19.700Z,101491.83
2019-03-30T15:29:49.638Z,101491.83
2019-03-30T15:32:19.572Z,101484.20
2019-03-30T15:34:49.510Z,101493.95
2019-03-30T15:37:19.443Z,101483.20
2019-03-30T15:39:49.485Z,101487.02
2019-03-30T15:42:19.314Z,101487.61
2019-03-30T15:44:49.140Z,101497.76
2019-03-30T15:47:19.085Z,101489.37
2019-03-30T15:49:48.911Z,101486.86
2019-03-30T15:52:18.854Z,101493.74
2019-03-30T15:54:48.903Z,101492.40
2019-03-30T15:57:18.825Z,101492.69
2019-03-30T15:59:48.550Z,101503.75
2019-03-30T16:02:18.076Z,101500.19
2019-03-30T16:04:48.021Z,101500.83
2019-03-30T16:07:17.743Z,101495.11
2019-03-30T16:09:47.687Z,101505.31
2019-03-30T16:12:17.513Z,101505.51
2019-03-30T16:14:47.242Z,101513.97
2019-03-30T16:17:18.108Z,101509.84
2019-03-30T16:19:47.932Z,101509.56
2019-03-30T16:22:17.869Z,101510.70
2019-03-30T16:24:47.914Z,101519.37
2019-03-30T16:27:28.677Z,101515.16
2019-03-30T16:29:50.138Z,101524.60
2019-03-30T16:32:19.973Z,101521.19
2019-03-30T16:34:50.010Z,101522.34
2019-03-30T16:37:19.626Z,101522.94
2019-03-30T16:39:49.267Z,101524.84
2019-03-30T16:42:19.093Z,101528.89
2019-03-30T16:44:48.925Z,101530.00
2019-03-30T16:47:18.890Z,101532.19
2019-03-30T16:49:48.807Z,101534.53
2019-03-30T16:52:18.632Z,101539.30
2019-03-30T16:54:48.472Z,101544.52
2019-03-30T16:57:18.412Z,101548.55
2019-03-30T16:59:48.446Z,101546.55
2019-03-30T17:02:18.271Z,101550.08
2019-03-30T17:04:48.215Z,101548.70
2019-03-30T17:07:18.038Z,101552.23
2019-03-30T17:09:47.985Z,101554.68
2019-03-30T17:12:17.818Z,101554.66
2019-03-30T17:14:47.855Z,101556.17
2019-03-30T17:17:17.791Z,101560.27
2019-03-30T17:19:47.726Z,101552.75
2019-03-30T17:22:17.550Z,101556.56
2019-03-30T17:24:47.385Z,101561.59
2019-03-30T17:27:17.217Z,101564.79
2019-03-30T17:29:48.185Z,101559.58
2019-03-30T17:32:18.224Z,101565.37
2019-03-30T17:34:47.842Z,101564.59
2019-03-30T17:37:17.676Z,101572.05
2019-03-30T17:39:47.611Z,101581.05
2019-03-30T17:42:17.689Z,101580.98
2019-03-30T17:44:47.697Z,101579.88
2019-03-30T17:47:17.726Z,101580.00
2019-03-30T17:49:47.569Z,101588.77
2019-03-30T17:52:17.404Z,101589.77
2019-03-30T17:54:47.226Z,101592.60
2019-03-30T17:57:17.598Z,101596.20
2019-03-30T17:59:47.403Z,101594.97
2019-03-30T18:02:17.245Z,101598.70
2019-03-30T18:04:47.182Z,101595.05
2019-03-30T18:07:17.008Z,101595.29
2019-03-30T18:09:46.950Z,101599.05
2019-03-30T18:12:20.257Z,101607.47
2019-03-30T18:14:48.143Z,101607.27
2019-03-30T18:17:17.976Z,101607.28
2019-03-30T18:19:47.920Z,101598.66
2019-03-30T18:22:17.746Z,101605.83
2019-03-30T18:24:47.578Z,101610.95
2019-03-30T18:27:17.525Z,101603.34
2019-03-30T18:29:47.357Z,101609.88
2019-03-30T18:32:18.417Z,101609.18
2019-03-30T18:34:48.045Z,101601.88
2019-03-30T18:37:18.084Z,101607.27
2019-03-30T18:39:48.020Z,101610.73
2019-03-30T18:42:17.649Z,101614.17
2019-03-30T18:44:47.472Z,101614.33
2019-03-30T18:47:17.308Z,101624.33
2019-03-30T18:49:47.147Z,101618.83
2019-03-30T18:52:16.982Z,101619.02
2019-03-30T18:54:46.918Z,101619.19
2019-03-30T18:57:16.957Z,101624.33
2019-03-30T18:59:46.992Z,101624.81
2019-03-30T19:02:19.106Z,101624.05
2019-03-30T19:04:48.193Z,101626.73
2019-03-30T19:07:18.130Z,101618.87
2019-03-30T19:09:47.967Z,101621.84
2019-03-30T19:12:17.800Z,101622.73
2019-03-30T19:14:47.733Z,101629.02
2019-03-30T19:17:17.565Z,101624.81
2019-03-30T19:19:50.128Z,101626.38
2019-03-30T19:22:18.859Z,101632.23
2019-03-30T19:24:48.807Z,101631.41
2019-03-30T19:27:18.637Z,101640.42
2019-03-30T19:29:48.463Z,101631.03
2019-03-30T19:32:18.501Z,101634.70
2019-03-30T19:34:48.333Z,101637.63
2019-03-30T19:37:18.279Z,101645.62
2019-03-30T19:39:48.218Z,101638.44
2019-03-30T19:42:18.149Z,101652.94
2019-03-30T19:44:47.873Z,101645.23
2019-03-30T19:47:17.818Z,101650.12
2019-03-30T19:49:47.641Z,101650.12
2019-03-30T19:52:17.483Z,101642.84
2019-03-30T19:54:47.418Z,101649.52
2019-03-30T19:57:17.353Z,101647.02
2019-03-30T19:59:47.077Z,101645.92
2019-03-30T20:02:17.023Z,101648.14
2019-03-30T20:04:46.956Z,101651.66
2019-03-30T20:07:16.783Z,101655.70
2019-03-30T20:09:46.725Z,101653.55
2019-03-30T20:12:16.685Z,101649.78
2019-03-30T20:14:46.791Z,101655.97
2019-03-30T20:17:16.830Z,101657.83
2019-03-30T20:19:46.829Z,101651.59
2019-03-30T20:22:16.599Z,101654.24
2019-03-30T20:24:46.432Z,101659.20
2019-03-30T20:27:16.274Z,101658.36
2019-03-30T20:29:47.032Z,101658.70
2019-03-30T20:32:17.153Z,101659.12
2019-03-30T20:34:46.899Z,101656.63
2019-03-30T20:37:17.327Z,101656.31
2019-03-30T20:39:47.619Z,101657.92
2019-03-30T20:42:17.875Z,101661.10
2019-03-30T20:44:48.459Z,101660.92
2019-03-30T20:47:19.927Z,101659.03
2019-03-30T20:49:50.494Z,101653.97
2019-03-30T20:52:21.223Z,101656.11
2019-03-30T20:54:51.519Z,101660.41
2019-03-30T20:57:21.787Z,101654.80
2019-03-30T20:59:51.575Z,101660.02
2019-03-30T21:02:21.407Z,101665.24
2019-03-30T21:04:51.448Z,101656.94
2019-03-30T21:07:21.278Z,101656.52
2019-03-30T21:09:51.215Z,101652.46
2019-03-30T21:12:21.151Z,101660.51
2019-03-30T21:14:50.986Z,101653.98
2019-03-30T21:17:20.921Z,101649.02
2019-03-30T21:19:50.745Z,101650.88
2019-03-30T21:22:20.699Z,101648.86
2019-03-30T21:24:50.513Z,101663.30
2019-03-30T21:27:20.458Z,101658.39
2019-03-30T21:29:54.866Z,101663.52
2019-03-30T21:32:21.354Z,101661.88
2019-03-30T21:34:51.390Z,101656.31
2019-03-30T21:37:21.223Z,101653.48
2019-03-30T21:39:51.047Z,101654.13
2019-03-30T21:42:20.992Z,101654.13
2019-03-30T21:44:50.928Z,101654.76
2019-03-30T21:47:20.761Z,101660.86
2019-03-30T21:49:50.696Z,101659.25
2019-03-30T21:52:22.169Z,101661.91
2019-03-30T21:54:51.888Z,101657.44
2019-03-30T21:57:21.832Z,101655.80
2019-03-30T21:59:51.657Z,101651.72
2019-03-30T22:02:21.602Z,101667.47
2019-03-30T22:04:51.537Z,101665.55
2019-03-30T22:07:21.260Z,101658.02
2019-03-30T22:09:51.093Z,101659.52
2019-03-30T22:12:21.054Z,101660.43
2019-03-30T22:14:50.863Z,101660.02
2019-03-30T22:17:26.739Z,101660.25
2019-03-30T22:19:56.673Z,101664.95
2019-03-30T22:22:26.612Z,101661.80
2019-03-30T22:24:56.545Z,101657.41
2019-03-30T22:27:28.621Z,101655.22
2019-03-30T22:29:58.565Z,101661.50
2019-03-30T22:32:32.685Z,101658.66
2019-03-30T22:35:02.936Z,101651.86
2019-03-30T22:37:32.872Z,101653.49
2019-03-30T22:40:02.593Z,101651.69
2019-03-30T22:42:32.435Z,101656.08
2019-03-30T22:45:02.377Z,101657.44
2019-03-30T22:47:32.205Z,101653.83
2019-03-30T22:50:02.245Z,101652.59
2019-03-30T22:52:32.178Z,101650.29
2019-03-30T22:55:02.003Z,101646.30
2019-03-30T22:57:31.946Z,101645.34
2019-03-30T23:00:01.884Z,101648.49
2019-03-30T23:02:31.818Z,101646.30
2019-03-30T23:05:01.543Z,101649.09
2019-03-30T23:07:31.374Z,101645.16
2019-03-30T23:10:01.319Z,101640.88
2019-03-30T23:12:31.153Z,101635.67
2019-03-30T23:15:00.977Z,101640.84
2019-03-30T23:17:30.921Z,101638.05
2019-03-30T23:20:00.859Z,101647.92
2019-03-30T23:22:30.578Z,101648.73
2019-03-30T23:25:00.523Z,101646.55
2019-03-30T23:27:30.459Z,101638.45
2019-03-30T23:30:00.504Z,101642.56
2019-03-30T23:32:30.535Z,101641.73
2019-03-30T23:35:00.577Z,101640.34
2019-03-30T23:37:30.909Z,101641.81
2019-03-30T23:40:00.854Z,101646.06
2019-03-30T23:42:30.575Z,101639.63
2019-03-30T23:45:00.409Z,101646.31
2019-03-30T23:47:30.352Z,101649.61
2019-03-30T23:50:00.358Z,101646.42
2019-03-30T23:52:30.321Z,101648.98
2019-03-30T23:55:00.344Z,101651.61
2019-03-30T23:57:30.402Z,101648.98
